createdAt,value
2018-01-11T00:01:43.675Z,19.20
2018-01-11T00:04:10.950Z,16.93
2018-01-11T00:06:38.188Z,18.30
2018-01-11T00:09:05.438Z,18.93
2018-01-11T00:11:32.668Z,18.30
2018-01-11T00:13:59.908Z,17.63
2018-01-11T00:16:27.160Z,19.50
2018-01-11T00:18:54.387Z,17.83
2018-01-11T00:21:21.617Z,17.10
2018-01-11T00:23:48.836Z,17.70
2018-01-11T00:26:16.057Z,17.10
2018-01-11T00:28:43.276Z,17.07
2018-01-11T00:31:10.489Z,15.60
2018-01-11T00:33:37.734Z,16.50
2018-01-11T00:36:04.989Z,15.53
2018-01-11T00:38:32.221Z,16.90
2018-01-11T00:40:59.462Z,15.43
2018-01-11T00:43:26.703Z,16.10
2018-01-11T00:45:53.933Z,14.77
2018-01-11T00:48:21.162Z,14.40
2018-01-11T00:50:48.397Z,15.00
2018-01-11T00:53:15.607Z,15.00
2018-01-11T00:55:42.844Z,15.47
2018-01-11T00:58:10.998Z,15.30
2018-01-11T01:00:38.243Z,15.37
2018-01-11T01:03:05.529Z,16.63
2018-01-11T01:05:32.763Z,17.10
2018-01-11T01:07:59.988Z,17.00
2018-01-11T01:10:27.229Z,17.50
2018-01-11T01:12:54.473Z,16.63
2018-01-11T01:15:21.718Z,16.00
2018-01-11T01:17:48.967Z,15.17
2018-01-11T01:20:16.186Z,17.33
2018-01-11T01:22:43.409Z,18.20
2018-01-11T01:25:10.629Z,17.97
2018-01-11T01:27:37.860Z,21.97
2018-01-11T01:30:04.758Z,20.00
2018-01-11T01:32:31.985Z,19.30
2018-01-11T01:34:59.195Z,18.90
2018-01-11T01:37:26.418Z,18.77
2018-01-11T01:39:53.667Z,19.80
2018-01-11T01:42:20.893Z,18.47
2018-01-11T01:44:48.117Z,18.73
2018-01-11T01:47:15.325Z,17.80
2018-01-11T01:49:42.549Z,17.97
2018-01-11T01:52:09.765Z,16.80
2018-01-11T01:54:36.991Z,18.93
2018-01-11T01:57:04.221Z,19.00
2018-01-11T01:59:31.472Z,18.20
2018-01-11T02:01:58.714Z,18.53
2018-01-11T02:04:26.011Z,17.30
2018-01-11T02:06:53.241Z,16.73
2018-01-11T02:09:20.485Z,17.23
2018-01-11T02:11:47.712Z,16.70
2018-01-11T02:14:14.937Z,17.37
2018-01-11T02:16:42.748Z,19.07
2018-01-11T02:19:09.962Z,17.80
2018-01-11T02:21:37.168Z,16.63
2018-01-11T02:24:04.387Z,18.30
2018-01-11T02:26:31.617Z,20.67
2018-01-11T02:28:58.851Z,18.80
2018-01-11T02:31:26.089Z,17.37
2018-01-11T02:33:53.308Z,19.37
2018-01-11T02:36:20.543Z,19.17
2018-01-11T02:38:47.757Z,21.20
2018-01-11T02:41:14.985Z,19.83
2018-01-11T02:43:42.240Z,21.97
2018-01-11T02:46:09.489Z,21.33
2018-01-11T02:48:36.725Z,22.30
2018-01-11T02:51:05.504Z,21.40
2018-01-11T02:53:32.736Z,20.77
2018-01-11T02:55:59.969Z,17.43
2018-01-11T02:58:27.212Z,19.97
2018-01-11T03:00:54.257Z,20.40
2018-01-11T03:03:21.479Z,18.97
2018-01-11T03:05:48.697Z,18.93
2018-01-11T03:08:15.912Z,19.97
2018-01-11T03:10:43.132Z,17.93
2018-01-11T03:13:10.353Z,17.70
2018-01-11T03:15:37.567Z,18.57
2018-01-11T03:18:04.817Z,17.77
2018-01-11T03:20:32.036Z,20.90
2018-01-11T03:22:59.296Z,19.53
2018-01-11T03:25:27.077Z,19.63
2018-01-11T03:27:54.309Z,19.60
2018-01-11T03:30:21.596Z,20.33
2018-01-11T03:32:49.310Z,19.83
2018-01-11T03:35:16.545Z,20.77
2018-01-11T03:37:43.772Z,21.30
2018-01-11T03:40:11.005Z,22.30
2018-01-11T03:42:38.772Z,20.17
2018-01-11T03:45:05.993Z,19.50
2018-01-11T03:47:33.220Z,19.10
2018-01-11T03:50:00.461Z,19.50
2018-01-11T03:52:27.689Z,18.70
2018-01-11T03:54:55.202Z,18.40
2018-01-11T03:57:22.414Z,16.77
2018-01-11T03:59:49.644Z,15.17
2018-01-11T04:02:16.884Z,16.17
2018-01-11T04:04:44.420Z,15.40
2018-01-11T04:07:11.652Z,16.07
2018-01-11T04:09:38.893Z,17.70
2018-01-11T04:12:06.121Z,17.60
2018-01-11T04:14:33.350Z,17.90
2018-01-11T04:17:00.561Z,18.80
2018-01-11T04:19:27.802Z,18.70
2018-01-11T04:21:55.034Z,20.77
2018-01-11T04:24:22.269Z,19.70
2018-01-11T04:26:49.498Z,20.93
2018-01-11T04:29:16.717Z,20.33
2018-01-11T04:31:43.949Z,23.13
2018-01-11T04:34:11.200Z,22.40
2018-01-11T04:36:38.421Z,20.87
2018-01-11T04:39:05.661Z,21.50
2018-01-11T04:41:32.890Z,20.43
2018-01-11T04:44:00.125Z,23.60
2018-01-11T04:46:27.050Z,21.90
2018-01-11T04:48:54.268Z,19.10
2018-01-11T04:51:21.484Z,24.23
2018-01-11T04:53:48.709Z,21.27
2018-01-11T04:56:15.940Z,17.90
2018-01-11T04:58:43.175Z,19.60
2018-01-11T05:01:11.111Z,19.73
2018-01-11T05:03:38.324Z,20.03
2018-01-11T05:06:05.556Z,21.67
2018-01-11T05:08:32.782Z,21.20
2018-01-11T05:11:00.040Z,21.03
2018-01-11T05:13:27.295Z,19.17
2018-01-11T05:15:54.517Z,19.20
2018-01-11T05:18:21.764Z,20.50
2018-01-11T05:20:49.006Z,19.43
2018-01-11T05:23:16.239Z,52.53
2018-01-11T05:25:43.468Z,18.77
2018-01-11T05:28:11.350Z,24.90
2018-01-11T05:30:38.580Z,23.37
2018-01-11T05:33:07.105Z,20.33
2018-01-11T05:35:34.348Z,20.23
2018-01-11T05:38:01.569Z,20.77
2018-01-11T05:40:28.786Z,17.53
2018-01-11T05:42:56.029Z,22.20
2018-01-11T05:45:23.243Z,36.70
2018-01-11T05:47:50.460Z,20.00
2018-01-11T05:50:17.677Z,21.17
2018-01-11T05:52:44.912Z,18.50
2018-01-11T05:55:12.117Z,21.13
2018-01-11T05:57:39.970Z,21.43
2018-01-11T06:00:08.328Z,28.60
2018-01-11T06:02:35.424Z,25.00
2018-01-11T06:05:02.739Z,23.07
2018-01-11T06:07:29.972Z,20.80
2018-01-11T06:09:57.224Z,19.10
2018-01-11T06:12:24.457Z,19.97
2018-01-11T06:14:51.692Z,18.77
2018-01-11T06:17:18.940Z,16.27
2018-01-11T06:19:46.180Z,23.20
2018-01-11T06:22:13.397Z,20.70
2018-01-11T06:24:40.656Z,42.80
2018-01-11T06:27:07.884Z,15.90
2018-01-11T06:29:35.118Z,13.70
2018-01-11T06:32:02.366Z,13.10
2018-01-11T06:34:29.585Z,12.20
2018-01-11T06:36:57.422Z,11.63
2018-01-11T06:39:24.656Z,14.47
2018-01-11T06:41:51.890Z,13.20
2018-01-11T06:44:19.224Z,10.40
2018-01-11T06:46:46.457Z,11.27
2018-01-11T06:49:13.693Z,11.70
2018-01-11T06:51:40.772Z,11.07
2018-01-11T06:54:08.037Z,12.20
2018-01-11T06:56:36.425Z,11.07
2018-01-11T06:59:03.673Z,12.10
2018-01-11T07:01:30.884Z,11.07
2018-01-11T07:03:59.492Z,10.97
2018-01-11T07:06:26.732Z,12.30
2018-01-11T07:08:54.393Z,11.70
2018-01-11T07:11:21.621Z,11.93
2018-01-11T07:13:49.096Z,12.67
2018-01-11T07:16:16.340Z,12.30
2018-01-11T07:18:44.873Z,14.20
2018-01-11T07:21:12.092Z,12.37
2018-01-11T07:23:40.052Z,10.23
2018-01-11T07:26:07.265Z,10.80
2018-01-11T07:28:34.210Z,11.70
2018-01-11T07:31:01.424Z,10.90
2018-01-11T07:33:28.637Z,11.97
2018-01-11T07:35:55.908Z,10.83
2018-01-11T07:38:23.140Z,11.47
2018-01-11T07:40:50.373Z,11.37
2018-01-11T07:43:17.601Z,10.53
2018-01-11T07:45:44.824Z,10.97
2018-01-11T07:48:12.065Z,9.43
2018-01-11T07:50:39.301Z,8.23
2018-01-11T07:53:06.529Z,8.90
2018-01-11T07:55:33.737Z,8.40
2018-01-11T07:58:00.969Z,8.50
2018-01-11T08:00:28.196Z,7.20
2018-01-11T08:02:55.425Z,9.37
2018-01-11T08:05:22.645Z,9.70
2018-01-11T08:07:49.880Z,8.30
2018-01-11T08:10:17.817Z,10.53
2018-01-11T08:12:45.079Z,9.70
2018-01-11T08:15:12.901Z,9.63
2018-01-11T08:17:39.921Z,8.77
2018-01-11T08:20:07.153Z,8.33
2018-01-11T08:22:34.380Z,8.90
2018-01-11T08:25:01.613Z,9.20
2018-01-11T08:27:28.832Z,9.07
2018-01-11T08:29:56.056Z,8.87
2018-01-11T08:32:23.293Z,8.50
2018-01-11T08:34:50.524Z,9.10
2018-01-11T08:37:17.764Z,11.03
2018-01-11T08:39:45.032Z,11.60
2018-01-11T08:42:12.248Z,13.50
2018-01-11T08:44:39.490Z,12.43
2018-01-11T08:47:06.700Z,13.17
2018-01-11T08:49:33.932Z,13.07
2018-01-11T08:52:00.828Z,15.47
2018-01-11T08:54:28.054Z,14.30
2018-01-11T08:56:55.285Z,12.40
2018-01-11T08:59:22.546Z,14.07
2018-01-11T09:01:49.788Z,12.93
2018-01-11T09:04:16.872Z,12.57
2018-01-11T09:06:44.105Z,13.00
2018-01-11T09:09:11.332Z,13.20
2018-01-11T09:11:38.761Z,14.27
2018-01-11T09:14:05.981Z,12.30
2018-01-11T09:16:33.211Z,11.77
2018-01-11T09:19:00.456Z,10.87
2018-01-11T09:21:27.668Z,11.20
2018-01-11T09:23:54.893Z,10.70
2018-01-11T09:26:22.181Z,11.40
2018-01-11T09:28:49.877Z,8.07
2018-01-11T09:31:17.101Z,8.77
2018-01-11T09:33:44.342Z,7.47
2018-01-11T09:36:11.565Z,6.53
2018-01-11T09:38:38.795Z,7.83
2018-01-11T09:41:06.042Z,6.53
2018-01-11T09:43:33.267Z,8.33
2018-01-11T09:46:00.498Z,9.20
2018-01-11T09:48:27.716Z,8.97
2018-01-11T09:50:54.932Z,9.60
2018-01-11T09:53:21.896Z,11.17
2018-01-11T09:55:49.104Z,9.93
2018-01-11T09:58:16.330Z,9.90
2018-01-11T10:00:44.249Z,9.93
2018-01-11T10:03:11.456Z,9.40
2018-01-11T10:05:38.741Z,9.70
2018-01-11T10:08:05.968Z,8.20
2018-01-11T10:10:33.213Z,8.97
2018-01-11T10:13:00.431Z,7.30
2018-01-11T10:15:27.659Z,8.37
2018-01-11T10:17:54.921Z,8.93
2018-01-11T10:20:22.136Z,9.67
2018-01-11T10:22:49.365Z,7.00
2018-01-11T10:25:17.587Z,8.20
2018-01-11T10:27:45.010Z,7.10
2018-01-11T10:30:12.223Z,7.77
2018-01-11T10:32:39.429Z,7.80
2018-01-11T10:35:06.650Z,6.80
2018-01-11T10:37:33.867Z,5.87
2018-01-11T10:40:01.112Z,6.30
2018-01-11T10:42:28.341Z,7.03
2018-01-11T10:44:55.572Z,6.70
2018-01-11T10:47:22.802Z,7.50
2018-01-11T10:49:50.013Z,7.07
2018-01-11T10:52:17.236Z,6.60
2018-01-11T10:54:44.469Z,6.73
2018-01-11T10:57:11.696Z,7.80
2018-01-11T10:59:38.910Z,6.67
2018-01-11T11:02:11.600Z,8.17
2018-01-11T11:04:40.168Z,8.70
2018-01-11T11:07:07.381Z,7.13
2018-01-11T11:09:34.604Z,9.93
2018-01-11T11:12:01.810Z,8.40
2018-01-11T11:14:29.029Z,7.83
2018-01-11T11:16:56.252Z,7.87
2018-01-11T11:19:23.500Z,8.47
2018-01-11T11:21:50.721Z,8.33
2018-01-11T11:24:17.941Z,7.13
2018-01-11T11:26:45.160Z,9.60
2018-01-11T11:29:12.389Z,7.50
2018-01-11T11:31:39.641Z,8.90
2018-01-11T11:34:06.884Z,9.67
2018-01-11T11:36:34.713Z,8.90
2018-01-11T11:39:01.920Z,10.30
2018-01-11T11:41:29.136Z,9.83
2018-01-11T11:43:56.366Z,9.67
2018-01-11T11:46:23.588Z,9.00
2018-01-11T11:48:50.833Z,9.87
2018-01-11T11:51:18.085Z,9.90
2018-01-11T11:53:45.125Z,8.87
2018-01-11T11:56:12.356Z,10.30
2018-01-11T11:58:39.583Z,9.77
2018-01-11T12:01:06.793Z,9.90
2018-01-11T12:03:34.008Z,9.20
2018-01-11T12:06:01.225Z,9.70
2018-01-11T12:08:28.463Z,8.30
2018-01-11T12:10:55.691Z,10.90
2018-01-11T12:13:22.901Z,9.47
2018-01-11T12:15:50.117Z,9.67
2018-01-11T12:18:17.380Z,8.23
2018-01-11T12:20:44.608Z,11.37
2018-01-11T12:23:11.825Z,9.77
2018-01-11T12:25:39.036Z,10.97
2018-01-11T12:28:06.277Z,10.10
2018-01-11T12:30:33.526Z,11.43
2018-01-11T12:33:00.756Z,10.83
2018-01-11T12:35:27.992Z,11.63
2018-01-11T12:37:55.077Z,10.00
2018-01-11T12:40:23.050Z,11.87
2018-01-11T12:42:50.276Z,11.20
2018-01-11T12:45:17.504Z,12.83
2018-01-11T12:47:44.804Z,51.07
2018-01-11T12:50:12.053Z,12.90
2018-01-11T12:52:39.260Z,10.57
2018-01-11T12:55:06.484Z,11.03
2018-01-11T12:57:33.721Z,11.33
2018-01-11T13:00:00.942Z,12.37
2018-01-11T13:02:28.184Z,12.20
2018-01-11T13:04:55.401Z,12.37
2018-01-11T13:07:22.715Z,10.83
2018-01-11T13:09:49.945Z,12.10
2018-01-11T13:12:17.174Z,12.30
2018-01-11T13:14:44.405Z,15.93
2018-01-11T13:17:11.637Z,12.97
2018-01-11T13:19:38.872Z,16.00
2018-01-11T13:22:06.614Z,17.27
2018-01-11T13:24:33.853Z,42.03
2018-01-11T13:27:01.173Z,13.57
2018-01-11T13:29:28.412Z,12.00
2018-01-11T13:31:55.616Z,13.37
2018-01-11T13:34:22.845Z,13.37
2018-01-11T13:36:50.061Z,13.50
2018-01-11T13:39:17.124Z,14.40
2018-01-11T13:41:44.528Z,13.47
2018-01-11T13:44:11.768Z,13.43
2018-01-11T13:46:39.085Z,14.23
2018-01-11T13:49:06.299Z,12.40
2018-01-11T13:51:33.532Z,12.20
2018-01-11T13:54:00.766Z,14.53
2018-01-11T13:56:28.006Z,12.23
2018-01-11T13:58:55.228Z,13.43
2018-01-11T14:01:22.560Z,13.30
2018-01-11T14:03:49.780Z,15.10
2018-01-11T14:06:17.276Z,13.57
2018-01-11T14:08:44.497Z,12.90
2018-01-11T14:11:11.729Z,15.23
2018-01-11T14:13:38.966Z,14.20
2018-01-11T14:16:06.201Z,13.20
2018-01-11T14:18:33.423Z,14.20
2018-01-11T14:21:00.648Z,16.57
2018-01-11T14:23:27.864Z,13.07
2018-01-11T14:25:55.101Z,12.10
2018-01-11T14:28:22.333Z,13.17
2018-01-11T14:30:49.551Z,13.10
2018-01-11T14:33:16.788Z,13.37
2018-01-11T14:35:44.017Z,13.30
2018-01-11T14:38:11.249Z,17.47
2018-01-11T14:40:38.461Z,15.27
2018-01-11T14:43:05.785Z,17.90
2018-01-11T14:45:33.016Z,15.30
2018-01-11T14:48:00.229Z,13.27
2018-01-11T14:50:27.471Z,14.57
2018-01-11T14:52:54.743Z,14.90
2018-01-11T14:55:21.960Z,15.00
2018-01-11T14:57:49.176Z,14.07
2018-01-11T15:00:16.416Z,15.67
2018-01-11T15:02:43.729Z,14.80
2018-01-11T15:05:10.972Z,15.40
2018-01-11T15:07:38.215Z,15.10
2018-01-11T15:10:05.564Z,14.83
2018-01-11T15:12:32.792Z,15.47
2018-01-11T15:15:00.015Z,13.87
2018-01-11T15:17:30.192Z,18.30
2018-01-11T15:19:57.445Z,15.07
2018-01-11T15:22:24.676Z,14.40
2018-01-11T15:24:51.936Z,14.67
2018-01-11T15:27:19.166Z,17.37
2018-01-11T15:29:46.400Z,16.30
2018-01-11T15:32:14.180Z,13.00
2018-01-11T15:34:41.415Z,11.53
2018-01-11T15:37:08.664Z,12.43
2018-01-11T15:39:35.899Z,11.57
2018-01-11T15:42:03.125Z,12.70
2018-01-11T15:44:30.362Z,12.03
2018-01-11T15:46:57.429Z,11.50
2018-01-11T15:49:24.680Z,11.90
2018-01-11T15:51:51.892Z,11.87
2018-01-11T15:54:19.131Z,11.57
2018-01-11T15:56:46.372Z,11.63
2018-01-11T15:59:13.354Z,12.27
2018-01-11T16:01:40.595Z,11.97
2018-01-11T16:04:07.805Z,11.80
2018-01-11T16:06:35.028Z,12.00
2018-01-11T16:09:02.258Z,11.20
2018-01-11T16:11:29.498Z,13.10
2018-01-11T16:13:56.726Z,13.40
2018-01-11T16:16:24.315Z,12.30
2018-01-11T16:18:51.530Z,25.27
2018-01-11T16:21:18.750Z,25.93
2018-01-11T16:23:46.034Z,28.93
2018-01-11T16:26:13.249Z,28.20
2018-01-11T16:28:40.460Z,27.33
2018-01-11T16:31:07.952Z,29.20
2018-01-11T16:33:35.220Z,28.77
2018-01-11T16:36:03.350Z,29.13
2018-01-11T16:38:30.576Z,28.40
2018-01-11T16:40:57.811Z,28.80
2018-01-11T16:43:25.045Z,31.03
2018-01-11T16:45:52.296Z,30.30
2018-01-11T16:48:19.520Z,28.97
2018-01-11T16:50:46.736Z,30.17
2018-01-11T16:53:14.496Z,28.20
2018-01-11T16:55:41.725Z,30.23
2018-01-11T16:58:08.966Z,29.87
2018-01-11T17:00:36.210Z,30.17
2018-01-11T17:03:03.446Z,29.30
2018-01-11T17:05:30.693Z,29.53
2018-01-11T17:07:57.929Z,27.77
2018-01-11T17:10:25.173Z,30.03
2018-01-11T17:12:52.408Z,27.70
2018-01-11T17:15:19.649Z,28.83
2018-01-11T17:17:46.878Z,26.77
2018-01-11T17:20:14.112Z,26.90
2018-01-11T17:22:41.344Z,28.40
2018-01-11T17:25:08.582Z,25.03
2018-01-11T17:27:35.812Z,27.00
2018-01-11T17:30:02.767Z,26.27
2018-01-11T17:32:29.989Z,27.37
2018-01-11T17:34:57.207Z,25.37
2018-01-11T17:37:24.437Z,27.43
2018-01-11T17:39:51.685Z,26.87
2018-01-11T17:42:18.929Z,26.80
2018-01-11T17:44:46.160Z,27.73
2018-01-11T17:47:13.408Z,23.20
2018-01-11T17:49:40.821Z,21.50
2018-01-11T17:52:08.765Z,21.90
2018-01-11T17:54:35.984Z,22.10
2018-01-11T17:57:03.205Z,20.67
2018-01-11T17:59:30.433Z,20.67
2018-01-11T18:01:57.659Z,20.93
2018-01-11T18:04:24.884Z,21.87
2018-01-11T18:06:52.109Z,20.80
2018-01-11T18:09:19.324Z,23.30
2018-01-11T18:11:46.554Z,20.20
2018-01-11T18:14:13.772Z,21.27
2018-01-11T18:16:41.012Z,22.00
2018-01-11T18:19:08.248Z,22.77
2018-01-11T18:21:35.465Z,21.37
2018-01-11T18:24:02.701Z,22.27
2018-01-11T18:26:30.557Z,21.27
2018-01-11T18:28:57.792Z,22.30
2018-01-11T18:31:25.017Z,21.80
2018-01-11T18:33:52.257Z,21.20
2018-01-11T18:36:19.508Z,21.97
2018-01-11T18:38:46.739Z,21.97
2018-01-11T18:41:13.969Z,17.83
2018-01-11T18:43:41.198Z,18.87
2018-01-11T18:46:08.420Z,17.40
2018-01-11T18:48:35.657Z,18.60
2018-01-11T18:51:02.870Z,18.40
2018-01-11T18:53:30.143Z,19.90
2018-01-11T18:55:57.369Z,18.30
2018-01-11T18:58:24.625Z,16.90
2018-01-11T19:00:51.862Z,15.33
2018-01-11T19:03:19.080Z,16.30
2018-01-11T19:05:46.309Z,16.37
2018-01-11T19:08:13.543Z,14.93
2018-01-11T19:10:40.765Z,15.70
2018-01-11T19:13:07.992Z,17.20
2018-01-11T19:15:36.327Z,16.47
2018-01-11T19:18:03.697Z,16.50
2018-01-11T19:20:30.934Z,15.13
2018-01-11T19:22:58.169Z,16.80
2018-01-11T19:25:25.396Z,17.60
2018-01-11T19:27:52.632Z,15.23
2018-01-11T19:30:19.853Z,15.30
2018-01-11T19:32:47.474Z,16.17
2018-01-11T19:35:14.697Z,14.17
2018-01-11T19:37:41.913Z,14.23
2018-01-11T19:40:09.539Z,14.83
2018-01-11T19:42:36.777Z,15.97
2018-01-11T19:45:04.054Z,17.20
2018-01-11T19:47:31.284Z,14.90
2018-01-11T19:49:58.505Z,13.07
2018-01-11T19:52:25.726Z,13.37
2018-01-11T19:54:52.932Z,14.00
2018-01-11T19:57:20.167Z,11.53
2018-01-11T19:59:47.400Z,12.63
2018-01-11T20:02:14.652Z,13.83
2018-01-11T20:04:41.881Z,15.27
2018-01-11T20:07:09.113Z,14.20
2018-01-11T20:09:36.325Z,14.40
2018-01-11T20:12:03.577Z,14.23
2018-01-11T20:14:30.812Z,14.90
2018-01-11T20:16:58.039Z,14.10
2018-01-11T20:19:25.265Z,13.00
2018-01-11T20:21:52.497Z,13.83
2018-01-11T20:24:19.713Z,14.50
2018-01-11T20:26:47.547Z,14.70
2018-01-11T20:29:14.812Z,15.50
2018-01-11T20:31:42.036Z,16.30
2018-01-11T20:34:09.279Z,15.53
2018-01-11T20:36:36.528Z,16.63
2018-01-11T20:39:03.245Z,15.93
2018-01-11T20:41:30.477Z,14.93
2018-01-11T20:43:58.537Z,14.13
2018-01-11T20:46:25.881Z,15.30
2018-01-11T20:48:53.110Z,15.40
2018-01-11T20:51:20.817Z,16.30
2018-01-11T20:53:48.907Z,16.90
2018-01-11T20:56:16.182Z,17.40
2018-01-11T20:58:43.447Z,17.20
2018-01-11T21:01:10.490Z,16.27
2018-01-11T21:03:37.718Z,17.30
2018-01-11T21:06:05.043Z,18.87
2018-01-11T21:08:32.275Z,17.50
2018-01-11T21:10:59.504Z,15.90
2018-01-11T21:13:26.722Z,18.90
2018-01-11T21:15:53.953Z,20.13
2018-01-11T21:18:23.445Z,19.60
2018-01-11T21:20:50.653Z,19.10
2018-01-11T21:23:17.888Z,18.27
2018-01-11T21:25:45.112Z,23.00
2018-01-11T21:28:12.340Z,27.43
2018-01-11T21:30:39.576Z,20.47
2018-01-11T21:33:06.801Z,20.37
2018-01-11T21:35:34.750Z,21.03
2018-01-11T21:38:01.973Z,21.73
2018-01-11T21:40:29.198Z,19.23
2018-01-11T21:42:56.705Z,20.90
2018-01-11T21:45:24.079Z,20.63
2018-01-11T21:47:51.998Z,21.10
2018-01-11T21:50:19.229Z,22.13
2018-01-11T21:52:46.461Z,21.90
2018-01-11T21:55:13.716Z,23.10
2018-01-11T21:57:40.953Z,21.67
2018-01-11T22:00:08.180Z,25.17
2018-01-11T22:02:35.438Z,24.03
2018-01-11T22:05:02.725Z,24.80
2018-01-11T22:07:29.975Z,24.23
2018-01-11T22:09:57.266Z,24.07
2018-01-11T22:12:24.517Z,25.80
2018-01-11T22:14:51.817Z,24.63
2018-01-11T22:17:19.137Z,25.20
2018-01-11T22:19:46.288Z,23.23
2018-01-11T22:22:13.591Z,22.57
2018-01-11T22:24:40.872Z,24.40
2018-01-11T22:27:08.153Z,22.30
2018-01-11T22:29:35.436Z,24.60
2018-01-11T22:32:02.702Z,23.80
2018-01-11T22:34:29.963Z,23.93
2018-01-11T22:36:57.230Z,25.70
2018-01-11T22:39:24.521Z,22.33
2018-01-11T22:41:51.764Z,23.27
2018-01-11T22:44:19.024Z,24.10
2018-01-11T22:46:46.268Z,24.10
2018-01-11T22:49:13.485Z,24.00
2018-01-11T22:51:40.759Z,23.30
2018-01-11T22:54:08.003Z,24.47
2018-01-11T22:56:35.288Z,21.90
2018-01-11T22:59:02.897Z,26.23
2018-01-11T23:01:30.212Z,22.87
2018-01-11T23:03:57.570Z,24.73
2018-01-11T23:06:24.849Z,22.70
2018-01-11T23:08:51.971Z,21.50
2018-01-11T23:11:24.720Z,23.50
2018-01-11T23:13:52.313Z,23.50
2018-01-11T23:16:19.571Z,23.70
2018-01-11T23:18:46.914Z,23.20
2018-01-11T23:21:14.188Z,22.73
2018-01-11T23:23:41.485Z,23.10
2018-01-11T23:26:08.754Z,23.00
2018-01-11T23:28:35.991Z,23.10
2018-01-11T23:31:03.284Z,20.10
2018-01-11T23:33:30.569Z,23.10
2018-01-11T23:35:57.870Z,21.87
2018-01-11T23:38:25.088Z,21.13
2018-01-11T23:40:52.939Z,21.00
2018-01-11T23:43:20.161Z,17.20
2018-01-11T23:45:47.385Z,20.10
2018-01-11T23:48:14.817Z,19.00
2018-01-11T23:50:42.040Z,21.90
2018-01-11T23:53:09.264Z,20.63
2018-01-11T23:55:36.474Z,18.30
2018-01-11T23:58:03.696Z,17.80
